sensor_id;sensor_type;location;lat;lon;timestamp;pressure;altitude;pressure_sealevel;temperature;humidity
20015;BME280;61787;42.022;23.078;2023-04-27T00:00:21;96390.50;;;9.88;62.65
20015;BME280;61787;42.022;23.078;2023-04-27T00:01:23;96406.56;;;9.88;63.18
20015;BME280;61787;42.022;23.078;2023-04-27T00:02:24;96400.53;;;9.91;62.13
20015;BME280;61787;42.022;23.078;2023-04-27T00:03:26;96407.44;;;9.92;62.89
20015;BME280;61787;42.022;23.078;2023-04-27T00:04:28;96402.78;;;9.89;63.58
20015;BME280;61787;42.022;23.078;2023-04-27T00:05:37;96400.09;;;9.89;63.29
20015;BME280;61787;42.022;23.078;2023-04-27T00:06:40;96407.44;;;9.92;63.27
20015;BME280;61787;42.022;23.078;2023-04-27T00:07:41;96400.53;;;9.91;62.20
20015;BME280;61787;42.022;23.078;2023-04-27T00:08:43;96402.66;;;9.85;60.98
20015;BME280;61787;42.022;23.078;2023-04-27T00:09:44;96411.47;;;9.85;62.15
20015;BME280;61787;42.022;23.078;2023-04-27T00:10:46;96406.13;;;9.85;62.00
20015;BME280;61787;42.022;23.078;2023-04-27T00:11:48;96406.56;;;9.88;62.23
20015;BME280;61787;42.022;23.078;2023-04-27T00:12:49;96404.91;;;9.83;60.35
20015;BME280;61787;42.022;23.078;2023-04-27T00:13:51;96401.00;;;9.80;60.64
20015;BME280;61787;42.022;23.078;2023-04-27T00:14:52;96412.47;;;9.81;60.43
20015;BME280;61787;42.022;23.078;2023-04-27T00:15:54;96400.34;;;9.83;60.74
20015;BME280;61787;42.022;23.078;2023-04-27T00:16:56;96420.28;;;9.86;60.76
20015;BME280;61787;42.022;23.078;2023-04-27T00:17:57;96405.47;;;9.89;60.23
20015;BME280;61787;42.022;23.078;2023-04-27T00:18:59;96414.16;;;9.85;59.09
20015;BME280;61787;42.022;23.078;2023-04-27T00:20:01;96407.25;;;9.84;58.22
20015;BME280;61787;42.022;23.078;2023-04-27T00:21:03;96404.13;;;9.82;59.69
20015;BME280;61787;42.022;23.078;2023-04-27T00:22:04;96407.25;;;9.84;60.63
20015;BME280;61787;42.022;23.078;2023-04-27T00:23:06;96407.34;;;9.88;60.39
20015;BME280;61787;42.022;23.078;2023-04-27T00:24:08;96409.69;;;9.90;59.67
20015;BME280;61787;42.022;23.078;2023-04-27T00:25:09;96402.00;;;9.88;59.51
20015;BME280;61787;42.022;23.078;2023-04-27T00:26:12;96397.44;;;9.89;58.40
20015;BME280;61787;42.022;23.078;2023-04-27T00:27:13;96400.09;;;9.89;58.60
20015;BME280;61787;42.022;23.078;2023-04-27T00:28:15;96406.91;;;9.86;57.75
20015;BME280;61787;42.022;23.078;2023-04-27T00:29:16;96404.22;;;9.86;58.08
20015;BME280;61787;42.022;23.078;2023-04-27T00:30:18;96404.69;;;9.88;58.70
20015;BME280;61787;42.022;23.078;2023-04-27T00:31:20;96400.44;;;9.87;57.88
20015;BME280;61787;42.022;23.078;2023-04-27T00:32:21;96398.09;;;9.85;58.20
20015;BME280;61787;42.022;23.078;2023-04-27T00:33:23;96410.59;;;9.81;57.35
20015;BME280;61787;42.022;23.078;2023-04-27T00:34:24;96401.78;;;9.81;57.06
20015;BME280;61787;42.022;23.078;2023-04-27T00:35:27;96402.56;;;9.81;58.13
20015;BME280;61787;42.022;23.078;2023-04-27T00:36:28;96397.19;;;9.81;58.83
20015;BME280;61787;42.022;23.078;2023-04-27T00:37:30;96390.28;;;9.80;58.02
20015;BME280;61787;42.022;23.078;2023-04-27T00:38:31;96394.53;;;9.81;58.70
20015;BME280;61787;42.022;23.078;2023-04-27T00:39:33;96404.91;;;9.83;56.87
20015;BME280;61787;42.022;23.078;2023-04-27T00:40:36;96397.19;;;9.81;57.56
20015;BME280;61787;42.022;23.078;2023-04-27T00:41:38;96404.03;;;9.79;58.22
20015;BME280;61787;42.022;23.078;2023-04-27T00:42:39;96389.06;;;9.78;57.15
20015;BME280;61787;42.022;23.078;2023-04-27T00:43:43;96401.22;;;9.75;57.32
20015;BME280;61787;42.022;23.078;2023-04-27T00:44:45;96387.19;;;9.78;57.52
20015;BME280;61787;42.022;23.078;2023-04-27T00:45:47;96395.88;;;9.75;56.80
20015;BME280;61787;42.022;23.078;2023-04-27T00:46:49;96403.56;;;9.77;57.91
20015;BME280;61787;42.022;23.078;2023-04-27T00:47:50;96401.47;;;9.70;56.65
20015;BME280;61787;42.022;23.078;2023-04-27T00:48:52;96397.00;;;9.74;57.33
20015;BME280;61787;42.022;23.078;2023-04-27T00:49:54;96396.31;;;9.77;57.10
20015;BME280;61787;42.022;23.078;2023-04-27T00:50:56;96397.00;;;9.74;57.51
20015;BME280;61787;42.022;23.078;2023-04-27T00:51:58;96403.91;;;9.75;56.72
20015;BME280;61787;42.022;23.078;2023-04-27T00:53:00;96408.47;;;9.75;56.89
20015;BME280;61787;42.022;23.078;2023-04-27T00:54:02;96406.16;;;9.73;58.48
20015;BME280;61787;42.022;23.078;2023-04-27T00:55:05;96404.13;;;9.70;56.75
20015;BME280;61787;42.022;23.078;2023-04-27T00:56:07;96391.88;;;9.69;56.45
20015;BME280;61787;42.022;23.078;2023-04-27T00:57:09;96408.38;;;9.71;56.61
20015;BME280;61787;42.022;23.078;2023-04-27T00:58:11;96385.41;;;9.70;56.87
20015;BME280;61787;42.022;23.078;2023-04-27T00:59:12;96404.81;;;9.67;56.56
20015;BME280;61787;42.022;23.078;2023-04-27T01:00:14;96398.78;;;9.70;56.94
20015;BME280;61787;42.022;23.078;2023-04-27T01:01:16;96404.03;;;9.67;57.20
20015;BME280;61787;42.022;23.078;2023-04-27T01:02:18;96408.84;;;9.61;56.59
20015;BME280;61787;42.022;23.078;2023-04-27T01:03:21;96407.72;;;9.62;58.39
20015;BME280;61787;42.022;23.078;2023-04-27T01:04:23;96412.63;;;9.60;57.47
20015;BME280;61787;42.022;23.078;2023-04-27T01:05:25;96401.47;;;9.58;57.53
20015;BME280;61787;42.022;23.078;2023-04-27T01:06:26;96402.69;;;9.61;57.47
20015;BME280;61787;42.022;23.078;2023-04-27T01:07:30;96408.38;;;9.59;57.43
20015;BME280;61787;42.022;23.078;2023-04-27T01:08:31;96401.91;;;9.60;57.63
20015;BME280;61787;42.022;23.078;2023-04-27T01:09:33;96413.41;;;9.61;57.38
20015;BME280;61787;42.022;23.078;2023-04-27T01:10:35;96409.84;;;9.57;56.53
20015;BME280;61787;42.022;23.078;2023-04-27T01:11:37;96403.38;;;9.58;57.89
20015;BME280;61787;42.022;23.078;2023-04-27T01:12:39;96400.34;;;9.59;57.87
20015;BME280;61787;42.022;23.078;2023-04-27T01:13:41;96417.53;;;9.58;57.42
20015;BME280;61787;42.022;23.078;2023-04-27T01:14:42;96420.09;;;9.55;57.26
20015;BME280;61787;42.022;23.078;2023-04-27T01:15:44;96407.84;;;9.54;57.60
20015;BME280;61787;42.022;23.078;2023-04-27T01:16:46;96413.84;;;9.51;58.17
20015;BME280;61787;42.022;23.078;2023-04-27T01:17:48;96408.59;;;9.54;58.41
20015;BME280;61787;42.022;23.078;2023-04-27T01:18:49;96414.19;;;9.49;58.16
20015;BME280;61787;42.022;23.078;2023-04-27T01:19:51;96421.09;;;9.50;58.85
20015;BME280;61787;42.022;23.078;2023-04-27T01:20:55;96421.31;;;9.45;59.35
20015;BME280;61787;42.022;23.078;2023-04-27T01:21:57;96415.97;;;9.45;59.43
20015;BME280;61787;42.022;23.078;2023-04-27T01:22:58;96410.50;;;9.41;59.99
20015;BME280;61787;42.022;23.078;2023-04-27T01:24:00;96413.41;;;9.36;59.08
20015;BME280;61787;42.022;23.078;2023-04-27T01:25:02;96407.97;;;9.33;58.87
20015;BME280;61787;42.022;23.078;2023-04-27T01:26:03;96417.75;;;9.29;60.12
20015;BME280;61787;42.022;23.078;2023-04-27T01:27:05;96411.41;;;9.21;59.95
20015;BME280;61787;42.022;23.078;2023-04-27T01:28:06;96415.28;;;9.24;59.26
20015;BME280;61787;42.022;23.078;2023-04-27T01:29:08;96413.06;;;9.26;59.54
20015;BME280;61787;42.022;23.078;2023-04-27T01:30:10;96405.25;;;9.21;59.38
20015;BME280;61787;42.022;23.078;2023-04-27T01:31:12;96404.38;;;9.17;59.97
20015;BME280;61787;42.022;23.078;2023-04-27T01:32:14;96406.59;;;9.15;59.49
20015;BME280;61787;42.022;23.078;2023-04-27T01:33:16;96410.72;;;9.12;59.15
20015;BME280;61787;42.022;23.078;2023-04-27T01:34:17;96409.69;;;9.05;60.63
20015;BME280;61787;42.022;23.078;2023-04-27T01:35:19;96409.91;;;8.99;60.49
20015;BME280;61787;42.022;23.078;2023-04-27T01:36:20;96405.34;;;9.00;60.44
20015;BME280;61787;42.022;23.078;2023-04-27T01:37:22;96412.16;;;8.97;59.97
20015;BME280;61787;42.022;23.078;2023-04-27T01:38:24;96404.13;;;8.97;59.49
20015;BME280;61787;42.022;23.078;2023-04-27T01:39:25;96406.81;;;8.97;61.32
20015;BME280;61787;42.022;23.078;2023-04-27T01:40:27;96409.03;;;8.95;60.56
20015;BME280;61787;42.022;23.078;2023-04-27T01:41:29;96407.34;;;8.91;60.06
20015;BME280;61787;42.022;23.078;2023-04-27T01:42:31;96394.75;;;8.91;60.25
20015;BME280;61787;42.022;23.078;2023-04-27T01:43:34;96396.50;;;8.87;60.04
20015;BME280;61787;42.022;23.078;2023-04-27T01:44:36;96407.22;;;8.87;60.75
20015;BME280;61787;42.022;23.078;2023-04-27T01:45:38;96401.75;;;8.84;60.25
20015;BME280;61787;42.022;23.078;2023-04-27T01:46:40;96397.19;;;8.84;59.72
20015;BME280;61787;42.022;23.078;2023-04-27T01:47:42;96394.97;;;8.86;59.94
20015;BME280;61787;42.022;23.078;2023-04-27T01:48:44;96407.88;;;8.84;60.03
20015;BME280;61787;42.022;23.078;2023-04-27T01:49:45;96399.41;;;8.82;60.74
20015;BME280;61787;42.022;23.078;2023-04-27T01:50:47;96400.84;;;8.80;59.86
20015;BME280;61787;42.022;23.078;2023-04-27T01:51:48;96404.31;;;8.80;60.54
20015;BME280;61787;42.022;23.078;2023-04-27T01:52:50;96405.41;;;8.79;59.90
20015;BME280;61787;42.022;23.078;2023-04-27T01:53:51;96403.22;;;8.81;60.65
20015;BME280;61787;42.022;23.078;2023-04-27T01:54:53;96410.78;;;8.79;60.61
20015;BME280;61787;42.022;23.078;2023-04-27T01:55:55;96408.56;;;8.81;59.61
20015;BME280;61787;42.022;23.078;2023-04-27T01:56:56;96412.97;;;8.77;59.97
20015;BME280;61787;42.022;23.078;2023-04-27T01:57:59;96423.47;;;8.82;60.96
20015;BME280;61787;42.022;23.078;2023-04-27T01:59:00;96411.88;;;8.78;59.38
20015;BME280;61787;42.022;23.078;2023-04-27T02:00:02;96409.66;;;8.80;60.01
20015;BME280;61787;42.022;23.078;2023-04-27T02:01:05;96406.09;;;8.76;60.08
20015;BME280;61787;42.022;23.078;2023-04-27T02:02:07;96404.97;;;8.77;58.88
20015;BME280;61787;42.022;23.078;2023-04-27T02:03:09;96422.13;;;8.76;59.22
20015;BME280;61787;42.022;23.078;2023-04-27T02:04:10;96414.53;;;8.78;59.92
20015;BME280;61787;42.022;23.078;2023-04-27T02:05:12;96410.31;;;8.77;59.01
20015;BME280;61787;42.022;23.078;2023-04-27T02:06:14;96417.56;;;8.77;59.63
20015;BME280;61787;42.022;23.078;2023-04-27T02:07:16;96411.75;;;8.75;59.08
20015;BME280;61787;42.022;23.078;2023-04-27T02:08:17;96410.66;;;8.76;59.29
20015;BME280;61787;42.022;23.078;2023-04-27T02:09:19;96406.88;;;8.77;59.59
20015;BME280;61787;42.022;23.078;2023-04-27T02:10:21;96417.09;;;8.75;61.03
20015;BME280;61787;42.022;23.078;2023-04-27T02:11:22;96418.09;;;8.70;59.58
20015;BME280;61787;42.022;23.078;2023-04-27T02:12:24;96411.31;;;8.73;59.85
20015;BME280;61787;42.022;23.078;2023-04-27T02:13:26;96425.81;;;8.72;60.06
20015;BME280;61787;42.022;23.078;2023-04-27T02:14:27;96420.47;;;8.72;59.64
20015;BME280;61787;42.022;23.078;2023-04-27T02:15:29;96418.09;;;8.70;60.70
20015;BME280;61787;42.022;23.078;2023-04-27T02:16:30;96423.44;;;8.70;60.83
20015;BME280;61787;42.022;23.078;2023-04-27T02:17:35;96424.56;;;8.69;61.33
20015;BME280;61787;42.022;23.078;2023-04-27T02:18:37;96421.41;;;8.67;60.48
20015;BME280;61787;42.022;23.078;2023-04-27T02:19:38;96413.41;;;8.67;60.64
20015;BME280;61787;42.022;23.078;2023-04-27T02:20:40;96425.66;;;8.68;60.10
20015;BME280;61787;42.022;23.078;2023-04-27T02:21:42;96420.66;;;8.67;60.35
20015;BME280;61787;42.022;23.078;2023-04-27T02:22:44;96423.97;;;8.64;61.16
20015;BME280;61787;42.022;23.078;2023-04-27T02:23:45;96433.88;;;8.63;60.79
20015;BME280;61787;42.022;23.078;2023-04-27T02:24:47;96434.66;;;8.64;61.37
20015;BME280;61787;42.022;23.078;2023-04-27T02:25:48;96426.22;;;8.62;61.98
20015;BME280;61787;42.022;23.078;2023-04-27T02:26:50;96428.41;;;8.60;61.82
20015;BME280;61787;42.022;23.078;2023-04-27T02:27:51;96429.84;;;8.57;61.51
20015;BME280;61787;42.022;23.078;2023-04-27T02:28:54;96425.97;;;8.54;62.15
20015;BME280;61787;42.022;23.078;2023-04-27T02:29:57;96428.94;;;8.53;61.19
20015;BME280;61787;42.022;23.078;2023-04-27T02:30:59;96426.47;;;8.48;61.71
20015;BME280;61787;42.022;23.078;2023-04-27T02:32:01;96430.25;;;8.47;62.54
20015;BME280;61787;42.022;23.078;2023-04-27T02:33:03;96425.13;;;8.42;62.29
20015;BME280;61787;42.022;23.078;2023-04-27T02:34:05;96420.91;;;8.41;62.60
20015;BME280;61787;42.022;23.078;2023-04-27T02:35:07;96427.00;;;8.41;62.59
20015;BME280;61787;42.022;23.078;2023-04-27T02:36:09;96426.88;;;8.38;62.52
20015;BME280;61787;42.022;23.078;2023-04-27T02:37:10;96429.75;;;8.33;62.77
20015;BME280;61787;42.022;23.078;2023-04-27T02:38:12;96429.31;;;8.31;62.68
20015;BME280;61787;42.022;23.078;2023-04-27T02:39:14;96428.81;;;8.29;62.83
20015;BME280;61787;42.022;23.078;2023-04-27T02:40:16;96424.59;;;8.28;63.61
20015;BME280;61787;42.022;23.078;2023-04-27T02:41:17;96422.56;;;8.25;63.48
20015;BME280;61787;42.022;23.078;2023-04-27T02:42:19;96428.34;;;8.27;63.69
20015;BME280;61787;42.022;23.078;2023-04-27T02:43:21;96433.91;;;8.22;62.73
20015;BME280;61787;42.022;23.078;2023-04-27T02:44:22;96431.88;;;8.19;63.03
20015;BME280;61787;42.022;23.078;2023-04-27T02:45:24;96427.44;;;8.23;63.88
20015;BME280;61787;42.022;23.078;2023-04-27T02:46:26;96430.13;;;8.23;63.54
20015;BME280;61787;42.022;23.078;2023-04-27T02:47:27;96427.44;;;8.23;63.35
20015;BME280;61787;42.022;23.078;2023-04-27T02:48:29;96430.78;;;8.20;63.13
20015;BME280;61787;42.022;23.078;2023-04-27T02:49:31;96426.88;;;8.17;64.00
20015;BME280;61787;42.022;23.078;2023-04-27T02:50:32;96444.34;;;8.14;64.49
20015;BME280;61787;42.022;23.078;2023-04-27T02:51:34;96428.75;;;8.17;64.01
20015;BME280;61787;42.022;23.078;2023-04-27T02:52:36;96441.84;;;8.09;63.62
20015;BME280;61787;42.022;23.078;2023-04-27T02:53:37;96436.53;;;8.09;63.86
20015;BME280;61787;42.022;23.078;2023-04-27T02:54:39;96434.94;;;8.08;65.04
20015;BME280;61787;42.022;23.078;2023-04-27T02:55:49;96440.94;;;8.05;64.76
20015;BME280;61787;42.022;23.078;2023-04-27T02:56:51;96437.81;;;8.03;64.63
20015;BME280;61787;42.022;23.078;2023-04-27T02:57:52;96433.69;;;8.06;64.53
20015;BME280;61787;42.022;23.078;2023-04-27T02:58:54;96434.47;;;8.06;63.98
20015;BME280;61787;42.022;23.078;2023-04-27T02:59:56;96428.69;;;8.04;63.38
20015;BME280;61787;42.022;23.078;2023-04-27T03:00:58;96431.03;;;8.06;63.54
20015;BME280;61787;42.022;23.078;2023-04-27T03:02:00;96437.81;;;8.03;63.85
20015;BME280;61787;42.022;23.078;2023-04-27T03:03:01;96405.78;;;8.03;63.82
20015;BME280;61787;42.022;23.078;2023-04-27T03:04:04;96417.25;;;8.04;63.10
20015;BME280;61787;42.022;23.078;2023-04-27T03:05:07;96438.72;;;8.07;63.56
20015;BME280;61787;42.022;23.078;2023-04-27T03:06:09;96436.53;;;8.09;63.43
20015;BME280;61787;42.022;23.078;2023-04-27T03:07:11;96438.72;;;8.07;63.11
20015;BME280;61787;42.022;23.078;2023-04-27T03:08:14;96437.94;;;8.07;63.30
20015;BME280;61787;42.022;23.078;2023-04-27T03:09:16;96424.91;;;8.05;63.06
20015;BME280;61787;42.022;23.078;2023-04-27T03:10:18;96437.03;;;8.03;63.59
20015;BME280;61787;42.022;23.078;2023-04-27T03:11:20;96436.91;;;7.99;62.83
20015;BME280;61787;42.022;23.078;2023-04-27T03:12:21;96436.56;;;8.01;64.34
20015;BME280;61787;42.022;23.078;2023-04-27T03:13:23;96429.34;;;8.01;63.08
20015;BME280;61787;42.022;23.078;2023-04-27T03:14:25;96434.69;;;8.01;63.64
20015;BME280;61787;42.022;23.078;2023-04-27T03:15:27;96441.59;;;8.02;63.02
20015;BME280;61787;42.022;23.078;2023-04-27T03:16:32;96431.69;;;8.03;63.25
20015;BME280;61787;42.022;23.078;2023-04-27T03:17:34;96436.25;;;8.02;63.42
20015;BME280;61787;42.022;23.078;2023-04-27T03:18:36;96438.91;;;8.02;63.60
20015;BME280;61787;42.022;23.078;2023-04-27T03:19:38;96430.59;;;8.04;62.68
20015;BME280;61787;42.022;23.078;2023-04-27T03:20:39;96430.91;;;8.02;62.74
20015;BME280;61787;42.022;23.078;2023-04-27T03:21:41;96437.81;;;8.03;63.11
20015;BME280;61787;42.022;23.078;2023-04-27T03:22:43;96436.25;;;8.02;63.14
20015;BME280;61787;42.022;23.078;2023-04-27T03:23:46;96437.69;;;8.00;62.99
20015;BME280;61787;42.022;23.078;2023-04-27T03:24:47;96416.00;;;8.01;62.96
20015;BME280;61787;42.022;23.078;2023-04-27T03:25:49;96429.34;;;8.01;62.82
20015;BME280;61787;42.022;23.078;2023-04-27T03:26:51;96430.78;;;7.99;61.86
20015;BME280;61787;42.022;23.078;2023-04-27T03:27:52;96449.91;;;8.01;61.87
20015;BME280;61787;42.022;23.078;2023-04-27T03:28:54;96439.38;;;8.04;61.50
20015;BME280;61787;42.022;23.078;2023-04-27T03:29:56;96429.16;;;8.06;61.99
20015;BME280;61787;42.022;23.078;2023-04-27T03:30:57;96436.72;;;8.04;60.95
20015;BME280;61787;42.022;23.078;2023-04-27T03:31:59;96441.59;;;8.02;60.86
20015;BME280;61787;42.022;23.078;2023-04-27T03:33:01;96439.38;;;8.04;60.53
20015;BME280;61787;42.022;23.078;2023-04-27T03:34:03;96456.31;;;8.08;61.47
20015;BME280;61787;42.022;23.078;2023-04-27T03:35:05;96444.06;;;8.07;61.25
20015;BME280;61787;42.022;23.078;2023-04-27T03:36:07;96447.19;;;8.09;60.52
20015;BME280;61787;42.022;23.078;2023-04-27T03:37:10;96442.50;;;8.06;60.97
20015;BME280;61787;42.022;23.078;2023-04-27T03:38:12;96456.50;;;8.03;60.56
20015;BME280;61787;42.022;23.078;2023-04-27T03:39:13;96452.72;;;8.04;61.48
20015;BME280;61787;42.022;23.078;2023-04-27T03:40:16;96454.47;;;8.00;60.81
20015;BME280;61787;42.022;23.078;2023-04-27T03:41:18;96451.34;;;7.98;61.65
20015;BME280;61787;42.022;23.078;2023-04-27T03:42:19;96451.34;;;7.98;61.77
20015;BME280;61787;42.022;23.078;2023-04-27T03:43:21;96451.53;;;7.93;62.40
20015;BME280;61787;42.022;23.078;2023-04-27T03:44:23;96468.78;;;7.96;62.76
20015;BME280;61787;42.022;23.078;2023-04-27T03:45:25;96468.00;;;7.95;63.25
20015;BME280;61787;42.022;23.078;2023-04-27T03:46:26;96462.66;;;7.95;62.59
20015;BME280;61787;42.022;23.078;2023-04-27T03:47:28;96464.91;;;7.93;62.42
20015;BME280;61787;42.022;23.078;2023-04-27T03:48:30;96472.44;;;7.91;63.07
20015;BME280;61787;42.022;23.078;2023-04-27T03:49:31;96470.44;;;7.88;63.44
20015;BME280;61787;42.022;23.078;2023-04-27T03:50:33;96466.66;;;7.89;63.09
20015;BME280;61787;42.022;23.078;2023-04-27T03:51:34;96466.50;;;7.86;62.35
20015;BME280;61787;42.022;23.078;2023-04-27T03:52:37;96477.31;;;7.89;63.13
20015;BME280;61787;42.022;23.078;2023-04-27T03:53:39;96477.31;;;7.89;63.42
20015;BME280;61787;42.022;23.078;2023-04-27T03:54:41;96478.56;;;7.92;63.15
20015;BME280;61787;42.022;23.078;2023-04-27T03:55:43;96472.44;;;7.91;63.29
20015;BME280;61787;42.022;23.078;2023-04-27T03:56:45;96469.31;;;7.89;63.07
20015;BME280;61787;42.022;23.078;2023-04-27T03:57:47;96483.78;;;7.88;63.69
20015;BME280;61787;42.022;23.078;2023-04-27T03:58:48;96482.66;;;7.89;62.88
20015;BME280;61787;42.022;23.078;2023-04-27T03:59:50;96476.06;;;7.87;63.42
20015;BME280;61787;42.022;23.078;2023-04-27T04:00:52;96481.41;;;7.87;63.10
20015;BME280;61787;42.022;23.078;2023-04-27T04:01:54;96484.56;;;7.89;63.09
20015;BME280;61787;42.022;23.078;2023-04-27T04:03:01;96487.53;;;7.87;64.14
20015;BME280;61787;42.022;23.078;2023-04-27T04:04:03;96489.72;;;7.85;63.32
20015;BME280;61787;42.022;23.078;2023-04-27T04:05:05;96500.41;;;7.85;64.01
20015;BME280;61787;42.022;23.078;2023-04-27T04:06:08;96498.22;;;7.87;63.63
20015;BME280;61787;42.022;23.078;2023-04-27T04:07:09;96496.63;;;7.86;63.73
20015;BME280;61787;42.022;23.078;2023-04-27T04:08:12;96492.88;;;7.87;63.82
20015;BME280;61787;42.022;23.078;2023-04-27T04:09:13;96508.22;;;7.90;63.99
20015;BME280;61787;42.022;23.078;2023-04-27T04:10:16;96517.63;;;7.96;64.04
20015;BME280;61787;42.022;23.078;2023-04-27T04:11:17;96512.28;;;7.96;64.67
20015;BME280;61787;42.022;23.078;2023-04-27T04:12:19;96522.06;;;7.92;65.46
20015;BME280;61787;42.022;23.078;2023-04-27T04:13:20;96516.72;;;7.92;64.96
20015;BME280;61787;42.022;23.078;2023-04-27T04:14:22;96515.31;;;7.95;65.42
20015;BME280;61787;42.022;23.078;2023-04-27T04:15:24;96522.06;;;7.92;65.44
20015;BME280;61787;42.022;23.078;2023-04-27T04:16:25;96515.50;;;7.90;66.18
20015;BME280;61787;42.022;23.078;2023-04-27T04:17:27;96523.63;;;7.93;65.62
20015;BME280;61787;42.022;23.078;2023-04-27T04:18:28;96525.97;;;7.95;65.64
20015;BME280;61787;42.022;23.078;2023-04-27T04:19:30;96520.78;;;7.98;65.11
20015;BME280;61787;42.022;23.078;2023-04-27T04:20:33;96530.78;;;8.01;65.25
20015;BME280;61787;42.022;23.078;2023-04-27T04:21:35;96520.91;;;8.02;65.00
20015;BME280;61787;42.022;23.078;2023-04-27T04:22:37;96525.44;;;8.01;65.00
20015;BME280;61787;42.022;23.078;2023-04-27T04:23:39;96517.25;;;8.06;64.43
20015;BME280;61787;42.022;23.078;2023-04-27T04:24:43;96527.31;;;8.09;64.32
20015;BME280;61787;42.022;23.078;2023-04-27T04:25:45;96531.53;;;8.10;64.26
20015;BME280;61787;42.022;23.078;2023-04-27T04:26:48;96530.22;;;8.17;63.64
20015;BME280;61787;42.022;23.078;2023-04-27T04:27:50;96532.28;;;8.20;63.31
20015;BME280;61787;42.022;23.078;2023-04-27T04:28:51;96533.06;;;8.20;63.06
20015;BME280;61787;42.022;23.078;2023-04-27T04:29:53;96539.00;;;8.26;63.33
20015;BME280;61787;42.022;23.078;2023-04-27T04:30:55;96542.41;;;8.26;63.83
20015;BME280;61787;42.022;23.078;2023-04-27T04:31:57;96531.25;;;8.33;63.16
20015;BME280;61787;42.022;23.078;2023-04-27T04:32:59;96533.50;;;8.31;63.23
20015;BME280;61787;42.022;23.078;2023-04-27T04:34:00;96534.41;;;8.35;63.39
20015;BME280;61787;42.022;23.078;2023-04-27T04:35:04;96548.00;;;8.42;63.36
20015;BME280;61787;42.022;23.078;2023-04-27T04:36:06;96542.47;;;8.47;63.47
20015;BME280;61787;42.022;23.078;2023-04-27T04:37:08;96547.31;;;8.53;64.33
20015;BME280;61787;42.022;23.078;2023-04-27T04:38:10;96551.47;;;8.63;63.52
20015;BME280;61787;42.022;23.078;2023-04-27T04:39:11;96541.84;;;8.71;62.08
20015;BME280;61787;42.022;23.078;2023-04-27T04:40:14;96548.09;;;8.75;62.17
20015;BME280;61787;42.022;23.078;2023-04-27T04:41:16;96548.22;;;8.78;61.23
20015;BME280;61787;42.022;23.078;2023-04-27T04:42:17;96549.78;;;8.79;61.72
20015;BME280;61787;42.022;23.078;2023-04-27T04:43:19;96549.13;;;8.82;62.22
20015;BME280;61787;42.022;23.078;2023-04-27T04:44:21;96555.03;;;8.88;61.44
20015;BME280;61787;42.022;23.078;2023-04-27T04:45:23;96553.41;;;8.95;61.20
20015;BME280;61787;42.022;23.078;2023-04-27T04:46:25;96556.22;;;8.99;61.36
20015;BME280;61787;42.022;23.078;2023-04-27T04:47:26;96558.34;;;9.06;61.06
20015;BME280;61787;42.022;23.078;2023-04-27T04:48:28;96558.63;;;9.13;62.12
20015;BME280;61787;42.022;23.078;2023-04-27T04:49:29;96559.06;;;9.15;60.39
20015;BME280;61787;42.022;23.078;2023-04-27T04:50:31;96559.53;;;9.17;60.99
20015;BME280;61787;42.022;23.078;2023-04-27T04:51:33;96559.31;;;9.22;60.13
20015;BME280;61787;42.022;23.078;2023-04-27T04:52:35;96561.78;;;9.27;60.31
20015;BME280;61787;42.022;23.078;2023-04-27T04:53:37;96560.91;;;9.35;60.55
20015;BME280;61787;42.022;23.078;2023-04-27T04:54:39;96559.59;;;9.41;60.69
20015;BME280;61787;42.022;23.078;2023-04-27T04:55:40;96564.81;;;9.37;60.27
20015;BME280;61787;42.022;23.078;2023-04-27T04:56:42;96563.63;;;9.47;59.95
20015;BME280;61787;42.022;23.078;2023-04-27T04:57:44;96563.84;;;9.54;59.86
20015;BME280;61787;42.022;23.078;2023-04-27T04:58:46;96566.09;;;9.52;60.22
20015;BME280;61787;42.022;23.078;2023-04-27T04:59:48;96567.28;;;9.55;59.72
20015;BME280;61787;42.022;23.078;2023-04-27T05:00:49;96565.41;;;9.55;59.78
20015;BME280;61787;42.022;23.078;2023-04-27T05:01:51;96566.97;;;9.56;59.47
20015;BME280;61787;42.022;23.078;2023-04-27T05:02:56;96565.34;;;9.64;59.12
20015;BME280;61787;42.022;23.078;2023-04-27T05:03:58;96568.78;;;9.64;58.71
20015;BME280;61787;42.022;23.078;2023-04-27T05:05:00;96572.69;;;9.67;58.56
20015;BME280;61787;42.022;23.078;2023-04-27T05:06:01;96572.78;;;9.70;59.23
20015;BME280;61787;42.022;23.078;2023-04-27T05:07:03;96564.34;;;9.68;59.23
20015;BME280;61787;42.022;23.078;2023-04-27T05:08:06;96574.16;;;9.64;58.24
20015;BME280;61787;42.022;23.078;2023-04-27T05:09:08;96576.59;;;9.69;58.49
20015;BME280;61787;42.022;23.078;2023-04-27T05:10:10;96575.47;;;9.70;58.61
20015;BME280;61787;42.022;23.078;2023-04-27T05:11:11;96579.06;;;9.74;58.60
20015;BME280;61787;42.022;23.078;2023-04-27T05:12:13;96577.06;;;9.83;58.27
20015;BME280;61787;42.022;23.078;2023-04-27T05:13:14;96579.06;;;9.87;57.71
20015;BME280;61787;42.022;23.078;2023-04-27T05:14:16;96574.94;;;9.89;58.74
20015;BME280;61787;42.022;23.078;2023-04-27T05:15:18;96574.72;;;9.82;57.45
20015;BME280;61787;42.022;23.078;2023-04-27T05:16:19;96579.28;;;9.81;57.36
20015;BME280;61787;42.022;23.078;2023-04-27T05:17:21;96571.72;;;9.83;56.80
20015;BME280;61787;42.022;23.078;2023-04-27T05:18:23;96581.63;;;9.83;56.72
20015;BME280;61787;42.022;23.078;2023-04-27T05:19:24;96581.63;;;9.83;56.75
20015;BME280;61787;42.022;23.078;2023-04-27T05:20:29;96582.19;;;9.89;56.70
20015;BME280;61787;42.022;23.078;2023-04-27T05:21:30;96581.19;;;9.81;56.59
20015;BME280;61787;42.022;23.078;2023-04-27T05:22:32;96570.03;;;9.79;56.35
20015;BME280;61787;42.022;23.078;2023-04-27T05:23:33;96570.34;;;9.77;56.26
20015;BME280;61787;42.022;23.078;2023-04-27T05:24:35;96583.06;;;9.80;56.77
20015;BME280;61787;42.022;23.078;2023-04-27T05:25:37;96561.44;;;9.73;56.55
20015;BME280;61787;42.022;23.078;2023-04-27T05:26:42;96578.81;;;9.67;56.91
20015;BME280;61787;42.022;23.078;2023-04-27T05:27:44;96581.75;;;9.74;57.14